createdAt,value
2018-04-06T00:00:45.037Z,3.60
2018-04-06T00:03:12.625Z,3.63
2018-04-06T00:05:40.994Z,3.60
2018-04-06T00:08:09.380Z,2.80
2018-04-06T00:10:37.715Z,3.50
2018-04-06T00:13:05.359Z,2.40
2018-04-06T00:15:32.937Z,2.50
2018-04-06T00:18:00.508Z,2.60
2018-04-06T00:20:28.094Z,2.20
2018-04-06T00:22:55.669Z,2.17
2018-04-06T00:25:23.233Z,2.23
2018-04-06T00:27:50.819Z,2.20
2018-04-06T00:30:18.443Z,2.60
2018-04-06T00:32:46.048Z,2.33
2018-04-06T00:35:13.651Z,2.60
2018-04-06T00:37:41.981Z,2.53
2018-04-06T00:40:09.593Z,2.50
2018-04-06T00:42:37.920Z,2.63
2018-04-06T00:45:05.507Z,2.67
2018-04-06T00:47:33.873Z,2.60
2018-04-06T00:50:01.496Z,3.27
2018-04-06T00:52:29.059Z,3.87
2018-04-06T00:54:56.629Z,3.50
2018-04-06T00:57:24.222Z,3.67
2018-04-06T00:59:51.790Z,3.50
2018-04-06T01:02:20.248Z,3.73
2018-04-06T01:04:47.812Z,3.63
2018-04-06T01:07:15.380Z,3.30
2018-04-06T01:09:42.975Z,3.40
2018-04-06T01:12:10.560Z,3.50
2018-04-06T01:14:38.133Z,3.47
2018-04-06T01:17:05.709Z,4.00
2018-04-06T01:19:33.267Z,3.40
2018-04-06T01:22:00.845Z,3.17
2018-04-06T01:24:29.204Z,3.70
2018-04-06T01:26:56.787Z,3.60
2018-04-06T01:29:25.161Z,3.20
2018-04-06T01:31:53.763Z,3.43
2018-04-06T01:34:21.313Z,3.47
2018-04-06T01:36:48.930Z,3.53
2018-04-06T01:39:16.486Z,3.60
2018-04-06T01:41:44.054Z,3.50
2018-04-06T01:44:11.647Z,4.70
2018-04-06T01:46:39.222Z,4.27
2018-04-06T01:49:07.754Z,4.37
2018-04-06T01:51:35.318Z,5.13
2018-04-06T01:54:02.884Z,4.63
2018-04-06T01:56:30.459Z,5.13
2018-04-06T01:58:58.849Z,4.60
2018-04-06T02:01:27.227Z,4.57
2018-04-06T02:03:54.801Z,5.93
2018-04-06T02:06:22.372Z,6.30
2018-04-06T02:08:50.008Z,6.60
2018-04-06T02:11:17.611Z,7.70
2018-04-06T02:13:45.187Z,7.77
2018-04-06T02:16:12.804Z,11.30
2018-04-06T02:18:40.368Z,11.07
2018-04-06T02:21:07.975Z,11.83
2018-04-06T02:23:35.550Z,11.43
2018-04-06T02:26:04.012Z,11.10
2018-04-06T02:34:33.918Z,12.17
2018-04-06T02:37:01.504Z,12.93
2018-04-06T02:39:29.121Z,13.40
2018-04-06T02:41:56.666Z,12.80
2018-04-06T02:44:24.987Z,14.23
2018-04-06T02:46:52.560Z,13.07
2018-04-06T02:49:20.200Z,13.87
2018-04-06T02:51:47.796Z,13.00
2018-04-06T02:54:16.472Z,13.73
2018-04-06T02:56:44.072Z,14.00
2018-04-06T02:59:12.413Z,12.63
2018-04-06T03:01:39.976Z,12.87
2018-04-06T03:04:17.286Z,12.50
2018-04-06T03:07:03.992Z,13.10
2018-04-06T03:09:34.727Z,13.07
2018-04-06T03:12:02.305Z,12.90
2018-04-06T03:14:29.986Z,12.80
2018-04-06T03:16:57.568Z,12.80
2018-04-06T03:19:25.134Z,13.07
2018-04-06T03:21:52.730Z,13.10
2018-04-06T03:24:20.299Z,12.37
2018-04-06T03:26:47.891Z,12.87
2018-04-06T03:29:15.465Z,13.43
2018-04-06T03:31:43.127Z,13.93
2018-04-06T03:34:11.465Z,14.30
2018-04-06T03:36:39.043Z,14.37
2018-04-06T03:39:07.610Z,14.27
2018-04-06T03:41:35.245Z,13.50
2018-04-06T03:44:02.800Z,13.60
2018-04-06T03:46:30.388Z,11.90
2018-04-06T03:48:57.996Z,12.80
2018-04-06T03:51:25.605Z,13.17
2018-04-06T03:53:53.231Z,12.77
2018-04-06T03:56:20.831Z,12.33
2018-04-06T03:58:48.458Z,12.37
2018-04-06T04:01:16.034Z,11.60
2018-04-06T04:03:43.606Z,11.97
2018-04-06T04:06:11.241Z,11.77
2018-04-06T04:08:38.870Z,11.37
2018-04-06T04:11:07.267Z,11.30
2018-04-06T04:13:34.877Z,10.80
2018-04-06T04:16:02.470Z,11.70
2018-04-06T04:18:30.094Z,11.17
2018-04-06T04:20:57.653Z,12.00
2018-04-06T04:23:25.246Z,11.43
2018-04-06T04:25:53.640Z,11.97
2018-04-06T04:28:21.202Z,11.67
2018-04-06T04:30:48.776Z,12.87
2018-04-06T04:33:16.330Z,11.73
2018-04-06T04:35:43.916Z,12.40
2018-04-06T04:38:11.516Z,12.60
2018-04-06T04:40:39.895Z,12.10
2018-04-06T04:43:07.496Z,10.90
2018-04-06T04:45:35.108Z,11.87
2018-04-06T04:48:02.796Z,12.07
2018-04-06T04:50:30.440Z,11.50
2018-04-06T04:52:59.161Z,11.60
2018-04-06T04:55:26.792Z,11.77
2018-04-06T04:57:54.426Z,11.43
2018-04-06T05:00:22.813Z,12.13
2018-04-06T05:02:51.154Z,12.73
2018-04-06T05:05:18.818Z,12.87
2018-04-06T05:07:46.424Z,11.97
2018-04-06T05:10:14.781Z,12.40
2018-04-06T05:12:43.129Z,12.13
2018-04-06T05:15:11.653Z,12.80
2018-04-06T05:17:40.063Z,12.83
2018-04-06T05:20:07.703Z,13.60
2018-04-06T05:22:35.376Z,12.90
2018-04-06T05:25:02.951Z,13.93
2018-04-06T05:27:30.557Z,13.87
2018-04-06T05:29:58.973Z,13.27
2018-04-06T05:32:26.722Z,13.70
2018-04-06T05:34:55.056Z,13.90
2018-04-06T05:37:22.663Z,13.17
2018-04-06T05:39:51.025Z,12.57
2018-04-06T05:42:19.401Z,13.47
2018-04-06T05:44:47.787Z,13.00
2018-04-06T05:47:15.460Z,11.90
2018-04-06T05:49:43.077Z,11.97
2018-04-06T05:52:10.762Z,13.13
2018-04-06T05:54:39.127Z,11.83
2018-04-06T05:57:06.736Z,10.87
2018-04-06T05:59:34.307Z,11.13
2018-04-06T06:02:01.956Z,11.27
2018-04-06T06:04:29.604Z,11.27
2018-04-06T06:06:57.214Z,11.60
2018-04-06T06:09:24.790Z,11.50
2018-04-06T06:11:52.375Z,11.67
2018-04-06T06:14:20.018Z,12.03
2018-04-06T06:16:47.623Z,11.13
2018-04-06T06:19:15.229Z,11.40
2018-04-06T06:21:43.628Z,12.30
2018-04-06T06:24:12.051Z,11.27
2018-04-06T06:26:39.627Z,12.37
2018-04-06T06:29:07.314Z,11.20
2018-04-06T06:31:34.859Z,12.00
2018-04-06T06:34:02.463Z,10.43
2018-04-06T06:36:30.082Z,11.17
2018-04-06T06:38:57.662Z,10.67
2018-04-06T06:41:25.994Z,10.13
2018-04-06T06:43:53.623Z,11.00
2018-04-06T06:46:21.264Z,9.63
2018-04-06T06:48:48.877Z,9.37
2018-04-06T06:51:16.479Z,9.50
2018-04-06T06:53:44.868Z,10.07
2018-04-06T06:56:13.219Z,9.97
2018-04-06T06:58:41.606Z,9.20
2018-04-06T07:01:09.960Z,9.43
2018-04-06T07:03:37.556Z,8.77
2018-04-06T07:06:06.032Z,8.70
2018-04-06T07:08:34.400Z,8.20
2018-04-06T07:11:02.784Z,8.90
2018-04-06T07:13:31.152Z,9.00
2018-04-06T07:15:59.501Z,8.53
2018-04-06T07:18:27.140Z,8.20
2018-04-06T07:20:54.698Z,8.53
2018-04-06T07:23:22.290Z,9.33
2018-04-06T07:25:49.864Z,8.40
2018-04-06T07:28:17.478Z,8.67
2018-04-06T07:30:45.120Z,8.40
2018-04-06T07:33:12.699Z,8.77
2018-04-06T07:35:40.290Z,8.93
2018-04-06T07:38:07.877Z,8.57
2018-04-06T07:40:36.248Z,8.83
2018-04-06T07:43:04.662Z,7.93
2018-04-06T07:45:32.302Z,8.30
2018-04-06T07:48:00.643Z,8.23
2018-04-06T07:50:28.235Z,8.43
2018-04-06T07:52:56.602Z,8.00
2018-04-06T07:55:25.003Z,7.83
2018-04-06T07:57:52.600Z,7.30
2018-04-06T08:00:20.168Z,7.50
2018-04-06T08:02:48.092Z,7.90
2018-04-06T08:05:15.689Z,8.00
2018-04-06T08:07:43.250Z,7.77
2018-04-06T08:10:10.856Z,7.27
2018-04-06T08:12:39.194Z,8.40
2018-04-06T08:15:06.815Z,8.20
2018-04-06T08:17:34.440Z,7.87
2018-04-06T08:20:02.281Z,8.10
2018-04-06T08:22:29.866Z,7.73
2018-04-06T08:24:58.193Z,7.87
2018-04-06T08:27:25.838Z,8.13
2018-04-06T08:29:53.393Z,7.60
2018-04-06T08:32:20.966Z,7.70
2018-04-06T08:34:48.542Z,7.70
2018-04-06T08:37:29.189Z,6.97
2018-04-06T08:40:09.331Z,6.70
2018-04-06T08:45:39.847Z,7.43
2018-04-06T08:48:07.444Z,7.63
2018-04-06T08:50:35.766Z,6.93
2018-04-06T08:53:03.346Z,6.47
2018-04-06T08:55:30.926Z,6.30
2018-04-06T08:57:59.305Z,6.47
2018-04-06T09:00:27.670Z,7.13
2018-04-06T09:02:55.234Z,9.30
2018-04-06T09:05:22.878Z,10.47
2018-04-06T09:07:50.468Z,12.17
2018-04-06T09:10:18.839Z,7.63
2018-04-06T09:12:47.213Z,7.37
2018-04-06T09:15:15.575Z,7.23
2018-04-06T09:17:43.185Z,8.77
2018-04-06T09:20:10.826Z,7.57
2018-04-06T09:22:39.149Z,7.90
2018-04-06T09:25:06.725Z,8.40
2018-04-06T09:27:34.348Z,8.43
2018-04-06T09:30:01.916Z,7.60
2018-04-06T09:32:29.536Z,7.63
2018-04-06T09:34:57.864Z,7.97
2018-04-06T09:37:25.433Z,8.40
2018-04-06T09:39:53.033Z,8.43
2018-04-06T09:42:21.371Z,8.37
2018-04-06T09:44:48.975Z,8.70
2018-04-06T09:47:17.390Z,9.37
2018-04-06T09:49:44.937Z,8.90
2018-04-06T09:52:12.533Z,8.90
2018-04-06T09:54:40.088Z,9.60
2018-04-06T09:57:07.653Z,9.43
2018-04-06T09:59:35.268Z,10.17
2018-04-06T10:02:08.670Z,10.20
2018-04-06T10:04:36.250Z,10.10
2018-04-06T10:07:03.821Z,10.40
2018-04-06T10:09:31.426Z,9.47
2018-04-06T10:11:59.011Z,10.10
2018-04-06T10:14:26.607Z,10.57
2018-04-06T10:16:54.248Z,10.10
2018-04-06T10:19:21.848Z,10.33
2018-04-06T10:21:50.204Z,9.73
2018-04-06T10:24:17.826Z,10.37
2018-04-06T10:26:45.386Z,10.30
2018-04-06T10:29:13.025Z,10.10
2018-04-06T10:31:40.652Z,8.60
2018-04-06T10:34:08.266Z,6.47
2018-04-06T10:36:35.867Z,6.77
2018-04-06T10:39:03.490Z,6.60
2018-04-06T10:41:31.123Z,10.03
2018-04-06T10:43:59.456Z,10.63
2018-04-06T10:46:27.048Z,10.80
2018-04-06T10:48:55.437Z,9.70
2018-04-06T10:51:23.779Z,8.07
2018-04-06T10:53:51.678Z,4.77
2018-04-06T10:56:20.085Z,4.70
2018-04-06T10:58:47.635Z,4.27
2018-04-06T11:01:15.216Z,4.10
2018-04-06T11:03:42.841Z,3.90
2018-04-06T11:06:11.226Z,4.30
2018-04-06T11:08:38.817Z,4.07
2018-04-06T11:11:06.391Z,4.50
2018-04-06T11:13:33.990Z,4.53
2018-04-06T11:16:02.352Z,3.57
2018-04-06T11:18:29.927Z,3.80
2018-04-06T11:20:58.310Z,4.07
2018-04-06T11:23:26.642Z,3.33
2018-04-06T11:25:54.235Z,4.33
2018-04-06T11:28:22.591Z,4.03
2018-04-06T11:30:50.213Z,3.63
2018-04-06T11:33:17.770Z,3.17
2018-04-06T11:35:45.714Z,3.40
2018-04-06T11:38:14.096Z,3.13
2018-04-06T11:40:41.909Z,4.10
2018-04-06T11:43:10.079Z,3.80
2018-04-06T11:45:37.721Z,4.30
2018-04-06T11:48:05.959Z,3.77
2018-04-06T11:50:34.299Z,3.70
2018-04-06T11:53:01.918Z,3.37
2018-04-06T11:55:29.475Z,3.43
2018-04-06T11:57:57.040Z,3.67
2018-04-06T12:00:24.639Z,3.23
2018-04-06T12:02:52.197Z,3.70
2018-04-06T12:05:21.073Z,3.57
2018-04-06T12:07:48.940Z,4.30
2018-04-06T12:10:16.809Z,4.43
2018-04-06T12:12:44.392Z,4.70
2018-04-06T12:15:11.958Z,5.10
2018-04-06T12:17:39.543Z,4.40
2018-04-06T12:20:07.128Z,4.37
2018-04-06T12:22:34.745Z,3.57
2018-04-06T12:25:03.092Z,5.60
2018-04-06T12:27:30.700Z,5.30
2018-04-06T12:29:58.280Z,4.70
2018-04-06T12:32:25.846Z,5.07
2018-04-06T12:34:53.479Z,4.83
2018-04-06T12:37:21.047Z,4.83
2018-04-06T12:39:48.603Z,5.13
2018-04-06T12:42:16.207Z,6.87
2018-04-06T12:44:43.800Z,7.13
2018-04-06T12:47:12.131Z,7.27
2018-04-06T12:49:39.735Z,8.00
2018-04-06T12:52:08.248Z,7.03
2018-04-06T12:54:35.809Z,6.43
2018-04-06T12:57:03.384Z,6.27
2018-04-06T12:59:30.985Z,6.13
2018-04-06T13:01:58.568Z,7.07
2018-04-06T13:04:26.167Z,5.40
2018-04-06T13:06:53.798Z,5.80
2018-04-06T13:09:21.385Z,6.63
2018-04-06T13:11:48.956Z,6.80
2018-04-06T13:14:16.595Z,6.93
2018-04-06T13:16:44.176Z,7.47
2018-04-06T13:19:11.752Z,7.07
2018-04-06T13:21:39.363Z,6.80
2018-04-06T13:24:06.965Z,6.57
2018-04-06T13:26:34.653Z,5.83
2018-04-06T13:29:02.997Z,5.63
2018-04-06T13:31:30.655Z,5.87
2018-04-06T13:33:58.313Z,5.10
2018-04-06T13:36:25.886Z,3.80
2018-04-06T13:38:53.472Z,4.27
2018-04-06T13:41:21.072Z,3.87
2018-04-06T13:43:48.632Z,4.50
2018-04-06T13:46:16.222Z,4.70
2018-04-06T13:48:43.811Z,4.10
2018-04-06T13:51:12.144Z,3.90
2018-04-06T13:53:39.774Z,4.30
2018-04-06T13:56:07.368Z,4.47
2018-04-06T13:58:34.976Z,4.10
2018-04-06T14:01:03.430Z,4.30
2018-04-06T14:03:31.703Z,6.10
2018-04-06T14:05:59.309Z,5.60
2018-04-06T14:08:28.012Z,5.53
2018-04-06T14:10:55.595Z,5.93
2018-04-06T14:13:23.260Z,5.30
2018-04-06T14:15:50.846Z,5.57
2018-04-06T14:18:19.192Z,5.67
2018-04-06T14:20:46.808Z,5.60
2018-04-06T14:23:14.450Z,5.27
2018-04-06T14:25:42.829Z,5.17
2018-04-06T14:28:11.182Z,4.60
2018-04-06T14:30:38.769Z,5.03
2018-04-06T14:33:07.138Z,4.43
2018-04-06T14:35:35.490Z,5.63
2018-04-06T14:38:03.076Z,6.07
2018-04-06T14:40:31.458Z,5.60
2018-04-06T14:42:59.849Z,5.47
2018-04-06T14:45:27.456Z,6.37
2018-04-06T14:47:55.126Z,5.50
2018-04-06T14:50:22.728Z,8.60
2018-04-06T14:52:50.331Z,10.13
2018-04-06T14:55:17.943Z,10.90
2018-04-06T14:57:45.621Z,10.73
2018-04-06T15:00:13.223Z,9.73
2018-04-06T15:02:40.822Z,9.93
2018-04-06T15:05:09.215Z,9.27
2018-04-06T15:07:36.796Z,8.27
2018-04-06T15:10:04.384Z,9.97
2018-04-06T15:12:31.941Z,10.30
2018-04-06T15:15:00.585Z,9.57
2018-04-06T15:17:28.216Z,9.97
2018-04-06T15:19:55.847Z,9.97
2018-04-06T15:22:23.417Z,10.03
2018-04-06T15:24:51.080Z,10.73
2018-04-06T15:27:18.661Z,9.87
2018-04-06T15:29:47.173Z,9.87
2018-04-06T15:32:14.747Z,10.27
2018-04-06T15:34:42.701Z,10.27
2018-04-06T15:37:10.349Z,10.40
2018-04-06T15:39:37.957Z,9.87
2018-04-06T15:42:05.548Z,11.60
2018-04-06T15:44:33.911Z,10.93
2018-04-06T15:47:01.509Z,11.23
2018-04-06T15:49:29.114Z,11.20
2018-04-06T15:51:56.752Z,12.53
2018-04-06T15:54:24.311Z,14.30
2018-04-06T15:56:51.958Z,12.30
2018-04-06T15:59:19.553Z,13.77
2018-04-06T16:01:47.129Z,12.47
2018-04-06T16:04:14.766Z,11.93
2018-04-06T16:06:42.329Z,14.83
2018-04-06T16:09:09.908Z,14.40
2018-04-06T16:11:37.557Z,15.70
2018-04-06T16:14:05.198Z,14.60
2018-04-06T16:16:32.798Z,14.30
2018-04-06T16:28:07.626Z,14.90
2018-04-06T16:30:35.244Z,15.13
2018-04-06T16:33:02.816Z,16.20
2018-04-06T16:35:30.394Z,15.83
2018-04-06T16:37:57.988Z,15.40
2018-04-06T16:40:26.401Z,13.67
2018-04-06T16:42:54.015Z,14.20
2018-04-06T16:45:21.591Z,13.20
2018-04-06T16:47:49.962Z,15.30
2018-04-06T16:50:18.347Z,15.00
2018-04-06T16:52:46.717Z,13.57
2018-04-06T16:55:15.241Z,15.00
2018-04-06T16:57:42.925Z,14.33
2018-04-06T17:00:10.499Z,15.90
2018-04-06T17:02:38.068Z,18.13
2018-04-06T17:05:05.662Z,15.70
2018-04-06T17:07:33.297Z,16.60
2018-04-06T17:10:00.980Z,17.60
2018-04-06T17:12:29.377Z,22.47
2018-04-06T17:14:56.958Z,26.43
2018-04-06T17:17:24.575Z,17.97
2018-04-06T17:19:52.928Z,16.23
2018-04-06T17:22:20.560Z,15.83
2018-04-06T17:24:48.157Z,23.37
2018-04-06T17:27:16.508Z,23.27
2018-04-06T17:29:44.162Z,25.00
2018-04-06T17:32:11.799Z,18.90
2018-04-06T17:34:39.368Z,17.73
2018-04-06T17:37:06.978Z,16.70
2018-04-06T17:39:35.334Z,15.30
2018-04-06T17:42:02.971Z,16.63
2018-04-06T17:44:30.560Z,21.03
2018-04-06T17:46:58.143Z,32.13
2018-04-06T17:49:26.601Z,27.20
2018-04-06T17:51:54.199Z,36.53
2018-04-06T17:54:21.784Z,38.47
2018-04-06T17:56:49.399Z,35.50
2018-04-06T17:59:17.769Z,31.93
2018-04-06T18:01:46.129Z,27.00
2018-04-06T18:04:13.701Z,21.53
2018-04-06T18:06:41.415Z,28.13
2018-04-06T18:09:09.000Z,34.30
2018-04-06T18:11:36.581Z,36.53
2018-04-06T18:14:04.165Z,29.27
2018-04-06T18:16:32.516Z,21.23
2018-04-06T18:19:00.101Z,53.23
2018-04-06T18:21:27.711Z,28.83
2018-04-06T18:23:55.330Z,19.37
2018-04-06T18:26:22.909Z,19.70
2018-04-06T18:28:51.212Z,14.67
2018-04-06T18:31:18.805Z,16.97
2018-04-06T18:33:47.182Z,13.70
2018-04-06T18:36:15.553Z,13.50
2018-04-06T18:38:43.169Z,12.90
2018-04-06T18:41:10.779Z,13.90
2018-04-06T18:43:39.154Z,15.47
2018-04-06T18:46:07.563Z,16.07
2018-04-06T18:48:35.169Z,22.43
2018-04-06T18:51:02.736Z,28.27
2018-04-06T18:53:30.319Z,31.40
2018-04-06T18:55:58.692Z,33.30
2018-04-06T18:58:27.026Z,42.33
2018-04-06T19:00:54.640Z,37.07
2018-04-06T19:03:22.978Z,31.27
2018-04-06T19:05:50.606Z,23.63
2018-04-06T19:08:18.236Z,20.57
2018-04-06T19:10:46.623Z,21.07
2018-04-06T19:13:15.012Z,23.77
2018-04-06T19:15:42.621Z,25.73
2018-04-06T19:18:10.205Z,24.93
2018-04-06T19:20:37.820Z,28.10
2018-04-06T19:23:05.401Z,29.90
2018-04-06T19:25:33.002Z,26.00
2018-04-06T19:28:00.587Z,27.03
2018-04-06T19:30:28.155Z,28.70
2018-04-06T19:32:55.765Z,32.23
2018-04-06T19:35:24.097Z,30.80
2018-04-06T19:37:51.673Z,28.93
2018-04-06T19:40:19.282Z,26.83
2018-04-06T19:42:46.861Z,30.50
2018-04-06T19:45:14.490Z,30.20
2018-04-06T19:47:43.241Z,27.97
2018-04-06T19:50:10.828Z,29.53
2018-04-06T19:52:39.235Z,36.20
2018-04-06T19:55:06.865Z,35.83
2018-04-06T19:57:35.204Z,34.40
2018-04-06T20:00:02.933Z,35.70
2018-04-06T20:02:30.505Z,33.00
2018-04-06T20:04:58.090Z,38.60
2018-04-06T20:07:25.761Z,44.87
2018-04-06T20:09:53.365Z,46.27
2018-04-06T20:12:21.208Z,40.50
2018-04-06T20:14:49.580Z,45.33
2018-04-06T20:17:17.956Z,42.00
2018-04-06T20:19:46.403Z,38.73
2018-04-06T20:22:13.979Z,37.30
2018-04-06T20:24:41.614Z,39.27
2018-04-06T20:27:09.350Z,40.03
2018-04-06T20:29:36.945Z,36.57
2018-04-06T20:32:04.503Z,35.40
2018-04-06T20:34:32.160Z,31.70
2018-04-06T20:36:59.777Z,29.60
2018-04-06T20:39:28.156Z,32.43
2018-04-06T20:41:55.785Z,33.97
2018-04-06T20:44:23.514Z,32.90
2018-04-06T20:46:51.122Z,33.17
2018-04-06T20:49:19.488Z,30.27
2018-04-06T20:51:47.129Z,29.40
2018-04-06T20:54:14.739Z,27.60
2018-04-06T20:56:43.072Z,25.57
2018-04-06T20:59:10.677Z,26.17
2018-04-06T21:01:39.058Z,24.60
2018-04-06T21:04:07.465Z,23.00
2018-04-06T21:06:35.100Z,21.27
2018-04-06T21:09:02.801Z,21.83
2018-04-06T21:11:30.423Z,20.53
2018-04-06T21:13:58.020Z,17.33
2018-04-06T21:16:25.635Z,17.20
2018-04-06T21:18:53.294Z,17.90
2018-04-06T21:21:20.989Z,18.47
2018-04-06T21:23:48.608Z,17.07
2018-04-06T21:26:16.987Z,17.03
2018-04-06T21:28:45.332Z,16.03
2018-04-06T21:31:12.984Z,15.97
2018-04-06T21:33:40.740Z,17.47
2018-04-06T21:36:08.331Z,15.93
2018-04-06T21:38:35.897Z,17.10
2018-04-06T21:41:03.596Z,17.53
2018-04-06T21:43:31.174Z,18.33
2018-04-06T21:45:58.917Z,15.33
2018-04-06T21:48:26.530Z,17.27
2018-04-06T21:50:54.285Z,16.60
2018-04-06T21:53:21.928Z,16.37
2018-04-06T21:55:49.655Z,14.50
2018-04-06T21:58:17.386Z,14.73
2018-04-06T22:00:45.738Z,15.47
2018-04-06T22:03:13.430Z,14.37
2018-04-06T22:05:41.815Z,14.60
2018-04-06T22:08:10.182Z,16.03
2018-04-06T22:10:37.881Z,15.13
2018-04-06T22:13:05.440Z,15.23
2018-04-06T22:15:33.002Z,13.83
2018-04-06T22:18:00.605Z,12.43
2018-04-06T22:20:28.173Z,12.60
2018-04-06T22:22:55.757Z,12.40
2018-04-06T22:25:24.241Z,12.27
2018-04-06T22:27:52.573Z,12.37
2018-04-06T22:30:20.177Z,12.53
2018-04-06T22:32:48.548Z,13.17
2018-04-06T22:35:16.923Z,12.47
2018-04-06T22:37:45.313Z,11.77
2018-04-06T22:40:13.655Z,12.13
2018-04-06T22:42:41.202Z,12.30
2018-04-06T22:45:08.809Z,11.60
2018-04-06T22:47:37.149Z,12.10
2018-04-06T22:50:04.764Z,11.73
2018-04-06T22:52:32.500Z,11.40
2018-04-06T22:55:01.578Z,12.43
2018-04-06T22:57:29.983Z,11.93
2018-04-06T22:59:58.321Z,11.40
2018-04-06T23:02:25.950Z,11.17
2018-04-06T23:04:53.565Z,11.17
2018-04-06T23:07:21.937Z,11.53
2018-04-06T23:09:49.571Z,11.67
2018-04-06T23:12:32.280Z,11.50
2018-04-06T23:17:52.300Z,22.37
2018-04-06T23:20:19.888Z,18.40
2018-04-06T23:22:47.461Z,17.50
2018-04-06T23:25:15.056Z,13.50
2018-04-06T23:27:43.467Z,15.43
2018-04-06T23:30:11.026Z,16.60
2018-04-06T23:32:38.590Z,19.03
2018-04-06T23:35:06.181Z,20.40
2018-04-06T23:37:33.749Z,21.37
2018-04-06T23:40:01.371Z,21.97
2018-04-06T23:42:29.001Z,20.20
2018-04-06T23:44:57.347Z,18.60
2018-04-06T23:47:24.957Z,18.37
2018-04-06T23:49:52.562Z,16.60
2018-04-06T23:52:20.125Z,16.33
2018-04-06T23:54:47.703Z,16.17
2018-04-06T23:57:16.099Z,16.57
2018-04-06T23:59:43.664Z,16.53
